sensor_id;sensor_type;location;lat;lon;timestamp;P1;durP1;ratioP1;P2;durP2;ratioP2
71187;SDS011;58893;53.130;8.158;2023-04-15T00:00:27;6.97;;;4.10;;
71187;SDS011;58893;53.130;8.158;2023-04-15T00:02:53;7.13;;;4.13;;
71187;SDS011;58893;53.130;8.158;2023-04-15T00:05:19;10.27;;;5.33;;
71187;SDS011;58893;53.130;8.158;2023-04-15T00:07:45;8.90;;;4.40;;
71187;SDS011;58893;53.130;8.158;2023-04-15T00:10:11;9.03;;;5.27;;
71187;SDS011;58893;53.130;8.158;2023-04-15T00:12:38;9.77;;;4.80;;
71187;SDS011;58893;53.130;8.158;2023-04-15T00:15:05;10.17;;;5.50;;
71187;SDS011;58893;53.130;8.158;2023-04-15T00:17:32;7.67;;;4.17;;
71187;SDS011;58893;53.130;8.158;2023-04-15T00:19:58;5.97;;;4.10;;
71187;SDS011;58893;53.130;8.158;2023-04-15T00:22:24;14.93;;;5.60;;
71187;SDS011;58893;53.130;8.158;2023-04-15T00:24:51;8.13;;;4.87;;
71187;SDS011;58893;53.130;8.158;2023-04-15T00:27:17;16.93;;;4.97;;
71187;SDS011;58893;53.130;8.158;2023-04-15T00:29:43;8.53;;;4.30;;
71187;SDS011;58893;53.130;8.158;2023-04-15T00:32:09;6.77;;;4.03;;
71187;SDS011;58893;53.130;8.158;2023-04-15T00:34:34;8.43;;;5.07;;
71187;SDS011;58893;53.130;8.158;2023-04-15T00:37:00;11.97;;;5.37;;
71187;SDS011;58893;53.130;8.158;2023-04-15T00:39:26;8.83;;;4.80;;
71187;SDS011;58893;53.130;8.158;2023-04-15T00:41:52;6.83;;;4.60;;
71187;SDS011;58893;53.130;8.158;2023-04-15T00:44:18;8.80;;;4.27;;
71187;SDS011;58893;53.130;8.158;2023-04-15T00:46:44;7.60;;;4.27;;
71187;SDS011;58893;53.130;8.158;2023-04-15T00:49:11;6.97;;;4.33;;
71187;SDS011;58893;53.130;8.158;2023-04-15T00:51:37;8.90;;;4.97;;
71187;SDS011;58893;53.130;8.158;2023-04-15T00:54:03;9.20;;;5.47;;
71187;SDS011;58893;53.130;8.158;2023-04-15T00:56:30;9.70;;;5.27;;
71187;SDS011;58893;53.130;8.158;2023-04-15T00:58:58;11.90;;;5.30;;
71187;SDS011;58893;53.130;8.158;2023-04-15T01:01:24;16.00;;;4.33;;
71187;SDS011;58893;53.130;8.158;2023-04-15T01:03:51;11.33;;;5.13;;
71187;SDS011;58893;53.130;8.158;2023-04-15T01:06:17;10.97;;;5.27;;
71187;SDS011;58893;53.130;8.158;2023-04-15T01:08:43;12.43;;;4.80;;
71187;SDS011;58893;53.130;8.158;2023-04-15T01:11:12;11.93;;;4.87;;
71187;SDS011;58893;53.130;8.158;2023-04-15T01:13:38;10.77;;;5.37;;
71187;SDS011;58893;53.130;8.158;2023-04-15T01:16:05;5.57;;;3.80;;
71187;SDS011;58893;53.130;8.158;2023-04-15T01:18:32;7.30;;;4.77;;
71187;SDS011;58893;53.130;8.158;2023-04-15T01:20:59;8.27;;;4.50;;
71187;SDS011;58893;53.130;8.158;2023-04-15T01:23:26;7.40;;;4.23;;
71187;SDS011;58893;53.130;8.158;2023-04-15T01:25:52;8.07;;;4.90;;
71187;SDS011;58893;53.130;8.158;2023-04-15T01:28:19;9.43;;;4.60;;
71187;SDS011;58893;53.130;8.158;2023-04-15T01:30:45;9.30;;;4.77;;
71187;SDS011;58893;53.130;8.158;2023-04-15T01:33:10;10.63;;;5.00;;
71187;SDS011;58893;53.130;8.158;2023-04-15T01:35:36;5.73;;;4.10;;
71187;SDS011;58893;53.130;8.158;2023-04-15T01:38:04;9.10;;;5.17;;
71187;SDS011;58893;53.130;8.158;2023-04-15T01:40:31;9.70;;;4.63;;
71187;SDS011;58893;53.130;8.158;2023-04-15T01:43:00;14.70;;;5.53;;
71187;SDS011;58893;53.130;8.158;2023-04-15T01:45:27;9.60;;;5.53;;
71187;SDS011;58893;53.130;8.158;2023-04-15T01:47:53;12.00;;;6.17;;
71187;SDS011;58893;53.130;8.158;2023-04-15T01:50:19;13.70;;;6.37;;
71187;SDS011;58893;53.130;8.158;2023-04-15T01:52:45;14.90;;;7.00;;
71187;SDS011;58893;53.130;8.158;2023-04-15T01:55:12;11.97;;;6.87;;
71187;SDS011;58893;53.130;8.158;2023-04-15T01:57:38;13.93;;;7.30;;
71187;SDS011;58893;53.130;8.158;2023-04-15T02:00:04;11.63;;;6.67;;
71187;SDS011;58893;53.130;8.158;2023-04-15T02:02:31;11.97;;;6.73;;
71187;SDS011;58893;53.130;8.158;2023-04-15T02:04:57;17.57;;;8.57;;
71187;SDS011;58893;53.130;8.158;2023-04-15T02:07:23;16.87;;;7.40;;
71187;SDS011;58893;53.130;8.158;2023-04-15T02:09:49;11.90;;;6.97;;
71187;SDS011;58893;53.130;8.158;2023-04-15T02:12:15;13.43;;;7.00;;
71187;SDS011;58893;53.130;8.158;2023-04-15T02:14:40;18.13;;;8.07;;
71187;SDS011;58893;53.130;8.158;2023-04-15T02:17:06;16.67;;;8.43;;
71187;SDS011;58893;53.130;8.158;2023-04-15T02:19:35;21.77;;;8.43;;
71187;SDS011;58893;53.130;8.158;2023-04-15T02:22:00;18.33;;;8.07;;
71187;SDS011;58893;53.130;8.158;2023-04-15T02:24:27;13.47;;;6.93;;
71187;SDS011;58893;53.130;8.158;2023-04-15T02:26:55;13.40;;;7.87;;
71187;SDS011;58893;53.130;8.158;2023-04-15T02:29:21;15.07;;;7.80;;
71187;SDS011;58893;53.130;8.158;2023-04-15T02:31:47;15.80;;;7.77;;
71187;SDS011;58893;53.130;8.158;2023-04-15T02:34:13;20.43;;;8.60;;
71187;SDS011;58893;53.130;8.158;2023-04-15T02:36:39;15.93;;;8.87;;
71187;SDS011;58893;53.130;8.158;2023-04-15T02:39:05;17.70;;;6.80;;
71187;SDS011;58893;53.130;8.158;2023-04-15T02:41:31;14.50;;;7.83;;
71187;SDS011;58893;53.130;8.158;2023-04-15T02:43:56;16.60;;;8.20;;
71187;SDS011;58893;53.130;8.158;2023-04-15T02:46:22;14.77;;;6.90;;
71187;SDS011;58893;53.130;8.158;2023-04-15T02:48:48;13.50;;;6.83;;
71187;SDS011;58893;53.130;8.158;2023-04-15T02:51:15;15.80;;;6.97;;
71187;SDS011;58893;53.130;8.158;2023-04-15T02:53:43;16.17;;;7.73;;
71187;SDS011;58893;53.130;8.158;2023-04-15T02:56:10;17.63;;;7.13;;
71187;SDS011;58893;53.130;8.158;2023-04-15T02:58:36;17.17;;;7.83;;
71187;SDS011;58893;53.130;8.158;2023-04-15T03:01:03;21.90;;;7.90;;
71187;SDS011;58893;53.130;8.158;2023-04-15T03:03:29;14.97;;;7.40;;
71187;SDS011;58893;53.130;8.158;2023-04-15T03:05:54;17.20;;;8.40;;
71187;SDS011;58893;53.130;8.158;2023-04-15T03:08:20;13.13;;;6.90;;
71187;SDS011;58893;53.130;8.158;2023-04-15T03:10:46;18.97;;;8.00;;
71187;SDS011;58893;53.130;8.158;2023-04-15T03:13:13;12.90;;;7.47;;
71187;SDS011;58893;53.130;8.158;2023-04-15T03:15:38;15.20;;;8.20;;
71187;SDS011;58893;53.130;8.158;2023-04-15T03:18:04;16.67;;;8.20;;
71187;SDS011;58893;53.130;8.158;2023-04-15T03:20:30;14.20;;;7.27;;
71187;SDS011;58893;53.130;8.158;2023-04-15T03:22:56;19.17;;;8.83;;
71187;SDS011;58893;53.130;8.158;2023-04-15T03:25:21;12.67;;;5.97;;
71187;SDS011;58893;53.130;8.158;2023-04-15T03:27:47;13.17;;;7.23;;
71187;SDS011;58893;53.130;8.158;2023-04-15T03:30:12;13.53;;;7.77;;
71187;SDS011;58893;53.130;8.158;2023-04-15T03:32:38;16.53;;;5.80;;
71187;SDS011;58893;53.130;8.158;2023-04-15T03:35:04;11.67;;;6.40;;
71187;SDS011;58893;53.130;8.158;2023-04-15T03:37:30;18.20;;;7.70;;
71187;SDS011;58893;53.130;8.158;2023-04-15T03:39:56;13.17;;;6.93;;
71187;SDS011;58893;53.130;8.158;2023-04-15T03:42:21;14.10;;;7.00;;
71187;SDS011;58893;53.130;8.158;2023-04-15T03:44:47;13.70;;;7.33;;
71187;SDS011;58893;53.130;8.158;2023-04-15T03:47:13;15.20;;;7.40;;
71187;SDS011;58893;53.130;8.158;2023-04-15T03:49:39;13.50;;;6.87;;
71187;SDS011;58893;53.130;8.158;2023-04-15T03:52:05;14.20;;;7.17;;
71187;SDS011;58893;53.130;8.158;2023-04-15T03:54:31;13.60;;;6.93;;
71187;SDS011;58893;53.130;8.158;2023-04-15T03:56:56;12.93;;;7.00;;
71187;SDS011;58893;53.130;8.158;2023-04-15T03:59:22;12.83;;;7.10;;
71187;SDS011;58893;53.130;8.158;2023-04-15T04:01:48;12.50;;;6.53;;
71187;SDS011;58893;53.130;8.158;2023-04-15T04:04:13;15.57;;;7.20;;
71187;SDS011;58893;53.130;8.158;2023-04-15T04:06:39;12.60;;;6.30;;
71187;SDS011;58893;53.130;8.158;2023-04-15T04:09:05;14.60;;;7.13;;
71187;SDS011;58893;53.130;8.158;2023-04-15T04:11:31;14.03;;;6.87;;
71187;SDS011;58893;53.130;8.158;2023-04-15T04:13:57;13.57;;;6.80;;
71187;SDS011;58893;53.130;8.158;2023-04-15T04:16:23;16.30;;;7.43;;
71187;SDS011;58893;53.130;8.158;2023-04-15T04:18:48;14.37;;;7.83;;
71187;SDS011;58893;53.130;8.158;2023-04-15T04:21:14;14.53;;;7.20;;
71187;SDS011;58893;53.130;8.158;2023-04-15T04:23:40;16.90;;;6.70;;
71187;SDS011;58893;53.130;8.158;2023-04-15T04:26:06;16.80;;;8.30;;
71187;SDS011;58893;53.130;8.158;2023-04-15T04:28:31;17.13;;;6.47;;
71187;SDS011;58893;53.130;8.158;2023-04-15T04:30:57;15.77;;;8.10;;
71187;SDS011;58893;53.130;8.158;2023-04-15T04:33:23;12.80;;;6.80;;
71187;SDS011;58893;53.130;8.158;2023-04-15T04:35:49;15.43;;;7.67;;
71187;SDS011;58893;53.130;8.158;2023-04-15T04:38:14;15.87;;;7.87;;
71187;SDS011;58893;53.130;8.158;2023-04-15T04:40:40;16.93;;;8.37;;
71187;SDS011;58893;53.130;8.158;2023-04-15T04:43:05;17.80;;;8.10;;
71187;SDS011;58893;53.130;8.158;2023-04-15T04:45:31;17.00;;;8.40;;
71187;SDS011;58893;53.130;8.158;2023-04-15T04:47:57;14.90;;;6.93;;
71187;SDS011;58893;53.130;8.158;2023-04-15T04:50:22;14.17;;;7.37;;
71187;SDS011;58893;53.130;8.158;2023-04-15T04:52:48;16.60;;;7.87;;
71187;SDS011;58893;53.130;8.158;2023-04-15T04:55:13;22.10;;;9.10;;
71187;SDS011;58893;53.130;8.158;2023-04-15T04:57:39;15.50;;;8.40;;
71187;SDS011;58893;53.130;8.158;2023-04-15T05:00:06;18.93;;;8.37;;
71187;SDS011;58893;53.130;8.158;2023-04-15T05:02:33;20.07;;;8.23;;
71187;SDS011;58893;53.130;8.158;2023-04-15T05:04:58;13.40;;;7.70;;
71187;SDS011;58893;53.130;8.158;2023-04-15T05:07:25;16.37;;;8.20;;
71187;SDS011;58893;53.130;8.158;2023-04-15T05:09:50;16.73;;;8.13;;
71187;SDS011;58893;53.130;8.158;2023-04-15T05:12:16;15.30;;;8.40;;
71187;SDS011;58893;53.130;8.158;2023-04-15T05:14:42;13.90;;;7.57;;
71187;SDS011;58893;53.130;8.158;2023-04-15T05:17:08;16.00;;;7.63;;
71187;SDS011;58893;53.130;8.158;2023-04-15T05:19:35;17.50;;;8.40;;
71187;SDS011;58893;53.130;8.158;2023-04-15T05:22:00;14.93;;;7.23;;
71187;SDS011;58893;53.130;8.158;2023-04-15T05:24:26;16.63;;;7.50;;
71187;SDS011;58893;53.130;8.158;2023-04-15T05:26:52;14.77;;;7.70;;
71187;SDS011;58893;53.130;8.158;2023-04-15T05:29:17;16.10;;;8.00;;
71187;SDS011;58893;53.130;8.158;2023-04-15T05:31:43;15.37;;;7.53;;
71187;SDS011;58893;53.130;8.158;2023-04-15T05:34:09;14.53;;;7.60;;
71187;SDS011;58893;53.130;8.158;2023-04-15T05:36:36;12.73;;;7.03;;
71187;SDS011;58893;53.130;8.158;2023-04-15T05:39:01;15.33;;;7.57;;
71187;SDS011;58893;53.130;8.158;2023-04-15T05:41:28;12.10;;;6.73;;
71187;SDS011;58893;53.130;8.158;2023-04-15T05:43:54;17.90;;;8.13;;
71187;SDS011;58893;53.130;8.158;2023-04-15T05:46:20;15.60;;;7.40;;
71187;SDS011;58893;53.130;8.158;2023-04-15T05:48:46;13.57;;;7.20;;
71187;SDS011;58893;53.130;8.158;2023-04-15T05:51:12;16.03;;;8.07;;
71187;SDS011;58893;53.130;8.158;2023-04-15T05:53:38;12.03;;;7.60;;
71187;SDS011;58893;53.130;8.158;2023-04-15T05:56:05;13.70;;;7.27;;
71187;SDS011;58893;53.130;8.158;2023-04-15T05:58:31;14.23;;;7.33;;
71187;SDS011;58893;53.130;8.158;2023-04-15T06:00:57;14.90;;;8.03;;
71187;SDS011;58893;53.130;8.158;2023-04-15T06:03:23;14.00;;;7.60;;
71187;SDS011;58893;53.130;8.158;2023-04-15T06:05:49;12.70;;;6.77;;
71187;SDS011;58893;53.130;8.158;2023-04-15T06:08:15;20.80;;;7.07;;
71187;SDS011;58893;53.130;8.158;2023-04-15T06:10:41;15.23;;;7.87;;
71187;SDS011;58893;53.130;8.158;2023-04-15T06:13:06;19.70;;;7.40;;
71187;SDS011;58893;53.130;8.158;2023-04-15T06:15:32;12.73;;;7.10;;
71187;SDS011;58893;53.130;8.158;2023-04-15T06:17:58;20.10;;;7.73;;
71187;SDS011;58893;53.130;8.158;2023-04-15T06:20:23;18.57;;;7.20;;
71187;SDS011;58893;53.130;8.158;2023-04-15T06:22:49;16.67;;;9.00;;
71187;SDS011;58893;53.130;8.158;2023-04-15T06:25:15;23.70;;;7.90;;
71187;SDS011;58893;53.130;8.158;2023-04-15T06:27:41;17.97;;;7.50;;
71187;SDS011;58893;53.130;8.158;2023-04-15T06:30:06;14.87;;;7.80;;
71187;SDS011;58893;53.130;8.158;2023-04-15T06:32:32;19.80;;;7.80;;
71187;SDS011;58893;53.130;8.158;2023-04-15T06:34:58;18.27;;;7.60;;
71187;SDS011;58893;53.130;8.158;2023-04-15T06:37:24;13.03;;;6.90;;
71187;SDS011;58893;53.130;8.158;2023-04-15T06:39:50;20.40;;;8.73;;
71187;SDS011;58893;53.130;8.158;2023-04-15T06:42:15;15.23;;;7.57;;
71187;SDS011;58893;53.130;8.158;2023-04-15T06:44:41;15.87;;;6.20;;
71187;SDS011;58893;53.130;8.158;2023-04-15T06:47:06;14.87;;;7.50;;
71187;SDS011;58893;53.130;8.158;2023-04-15T06:49:33;10.73;;;6.43;;
71187;SDS011;58893;53.130;8.158;2023-04-15T06:51:59;17.37;;;8.17;;
71187;SDS011;58893;53.130;8.158;2023-04-15T06:54:25;24.37;;;11.57;;
71187;SDS011;58893;53.130;8.158;2023-04-15T06:56:51;24.53;;;9.90;;
71187;SDS011;58893;53.130;8.158;2023-04-15T06:59:17;19.63;;;8.90;;
71187;SDS011;58893;53.130;8.158;2023-04-15T07:01:43;17.07;;;8.87;;
71187;SDS011;58893;53.130;8.158;2023-04-15T07:04:08;17.90;;;8.30;;
71187;SDS011;58893;53.130;8.158;2023-04-15T07:06:35;14.43;;;7.70;;
71187;SDS011;58893;53.130;8.158;2023-04-15T07:09:00;15.20;;;8.57;;
71187;SDS011;58893;53.130;8.158;2023-04-15T07:11:27;16.87;;;7.67;;
71187;SDS011;58893;53.130;8.158;2023-04-15T07:13:53;16.30;;;7.47;;
71187;SDS011;58893;53.130;8.158;2023-04-15T07:16:18;39.73;;;11.40;;
71187;SDS011;58893;53.130;8.158;2023-04-15T07:18:44;27.23;;;11.33;;
71187;SDS011;58893;53.130;8.158;2023-04-15T07:21:10;20.53;;;8.40;;
71187;SDS011;58893;53.130;8.158;2023-04-15T07:23:35;23.83;;;10.20;;
71187;SDS011;58893;53.130;8.158;2023-04-15T07:26:01;19.87;;;8.73;;
71187;SDS011;58893;53.130;8.158;2023-04-15T07:28:27;14.30;;;6.87;;
71187;SDS011;58893;53.130;8.158;2023-04-15T07:30:53;16.90;;;7.53;;
71187;SDS011;58893;53.130;8.158;2023-04-15T07:33:21;11.83;;;6.93;;
71187;SDS011;58893;53.130;8.158;2023-04-15T07:35:47;18.00;;;6.07;;
71187;SDS011;58893;53.130;8.158;2023-04-15T07:38:12;18.00;;;7.57;;
71187;SDS011;58893;53.130;8.158;2023-04-15T07:40:38;16.57;;;6.87;;
71187;SDS011;58893;53.130;8.158;2023-04-15T07:43:04;12.90;;;6.03;;
71187;SDS011;58893;53.130;8.158;2023-04-15T07:45:30;11.93;;;6.80;;
71187;SDS011;58893;53.130;8.158;2023-04-15T07:47:56;11.67;;;5.33;;
71187;SDS011;58893;53.130;8.158;2023-04-15T07:50:22;11.57;;;5.83;;
71187;SDS011;58893;53.130;8.158;2023-04-15T07:52:51;13.47;;;6.77;;
71187;SDS011;58893;53.130;8.158;2023-04-15T07:55:17;10.97;;;5.80;;
71187;SDS011;58893;53.130;8.158;2023-04-15T07:57:45;9.17;;;4.73;;
71187;SDS011;58893;53.130;8.158;2023-04-15T08:00:11;8.60;;;4.90;;
71187;SDS011;58893;53.130;8.158;2023-04-15T08:02:38;9.20;;;5.20;;
71187;SDS011;58893;53.130;8.158;2023-04-15T08:05:04;7.27;;;4.00;;
71187;SDS011;58893;53.130;8.158;2023-04-15T08:07:31;10.93;;;4.77;;
71187;SDS011;58893;53.130;8.158;2023-04-15T08:09:57;12.23;;;5.23;;
71187;SDS011;58893;53.130;8.158;2023-04-15T08:12:22;10.00;;;4.97;;
71187;SDS011;58893;53.130;8.158;2023-04-15T08:14:49;8.50;;;5.27;;
71187;SDS011;58893;53.130;8.158;2023-04-15T08:17:15;7.10;;;4.03;;
71187;SDS011;58893;53.130;8.158;2023-04-15T08:19:40;7.77;;;4.80;;
71187;SDS011;58893;53.130;8.158;2023-04-15T08:22:07;7.57;;;3.80;;
71187;SDS011;58893;53.130;8.158;2023-04-15T08:24:32;9.80;;;3.70;;
71187;SDS011;58893;53.130;8.158;2023-04-15T08:26:58;5.63;;;3.10;;
71187;SDS011;58893;53.130;8.158;2023-04-15T08:29:25;7.00;;;3.60;;
71187;SDS011;58893;53.130;8.158;2023-04-15T08:31:52;10.40;;;3.47;;
71187;SDS011;58893;53.130;8.158;2023-04-15T08:34:18;6.70;;;3.87;;
71187;SDS011;58893;53.130;8.158;2023-04-15T08:36:43;13.57;;;5.60;;
71187;SDS011;58893;53.130;8.158;2023-04-15T08:39:09;15.60;;;6.00;;
71187;SDS011;58893;53.130;8.158;2023-04-15T08:41:50;10.30;;;5.03;;
71187;SDS011;58893;53.130;8.158;2023-04-15T08:44:20;5.60;;;3.77;;
71187;SDS011;58893;53.130;8.158;2023-04-15T08:46:47;8.57;;;3.13;;
71187;SDS011;58893;53.130;8.158;2023-04-15T08:49:14;5.90;;;3.57;;
71187;SDS011;58893;53.130;8.158;2023-04-15T08:51:41;5.77;;;4.00;;
71187;SDS011;58893;53.130;8.158;2023-04-15T08:54:07;11.80;;;4.57;;
71187;SDS011;58893;53.130;8.158;2023-04-15T08:56:34;5.73;;;3.60;;
71187;SDS011;58893;53.130;8.158;2023-04-15T08:59:01;5.07;;;3.20;;
71187;SDS011;58893;53.130;8.158;2023-04-15T09:01:27;9.17;;;3.80;;
71187;SDS011;58893;53.130;8.158;2023-04-15T09:03:53;5.80;;;3.00;;
71187;SDS011;58893;53.130;8.158;2023-04-15T09:06:20;7.27;;;3.30;;
71187;SDS011;58893;53.130;8.158;2023-04-15T09:08:48;4.90;;;3.10;;
71187;SDS011;58893;53.130;8.158;2023-04-15T09:11:14;5.13;;;3.00;;
71187;SDS011;58893;53.130;8.158;2023-04-15T09:13:41;10.40;;;3.57;;
71187;SDS011;58893;53.130;8.158;2023-04-15T09:16:07;3.87;;;2.90;;
71187;SDS011;58893;53.130;8.158;2023-04-15T09:18:34;5.10;;;3.00;;
71187;SDS011;58893;53.130;8.158;2023-04-15T09:21:13;7.53;;;4.93;;
71187;SDS011;58893;53.130;8.158;2023-04-15T09:23:41;3.97;;;2.63;;
71187;SDS011;58893;53.130;8.158;2023-04-15T09:26:34;3.47;;;2.57;;
71187;SDS011;58893;53.130;8.158;2023-04-15T09:31:34;3.90;;;2.47;;
71187;SDS011;58893;53.130;8.158;2023-04-15T09:34:01;6.13;;;2.80;;
71187;SDS011;58893;53.130;8.158;2023-04-15T09:36:27;5.83;;;3.17;;
71187;SDS011;58893;53.130;8.158;2023-04-15T09:38:56;6.60;;;3.27;;
71187;SDS011;58893;53.130;8.158;2023-04-15T09:41:23;5.00;;;2.80;;
71187;SDS011;58893;53.130;8.158;2023-04-15T09:43:50;4.30;;;2.87;;
71187;SDS011;58893;53.130;8.158;2023-04-15T09:46:15;5.30;;;3.10;;
71187;SDS011;58893;53.130;8.158;2023-04-15T09:48:41;5.47;;;3.07;;
71187;SDS011;58893;53.130;8.158;2023-04-15T09:51:06;8.00;;;2.83;;
71187;SDS011;58893;53.130;8.158;2023-04-15T09:53:33;3.37;;;2.33;;
71187;SDS011;58893;53.130;8.158;2023-04-15T09:56:00;7.07;;;2.80;;
71187;SDS011;58893;53.130;8.158;2023-04-15T09:58:27;4.63;;;3.47;;
71187;SDS011;58893;53.130;8.158;2023-04-15T10:00:55;5.80;;;3.67;;
71187;SDS011;58893;53.130;8.158;2023-04-15T10:03:28;5.47;;;2.80;;
71187;SDS011;58893;53.130;8.158;2023-04-15T10:05:59;3.20;;;2.57;;
71187;SDS011;58893;53.130;8.158;2023-04-15T10:08:26;7.03;;;2.57;;
71187;SDS011;58893;53.130;8.158;2023-04-15T10:10:53;4.10;;;2.73;;
71187;SDS011;58893;53.130;8.158;2023-04-15T10:13:21;5.07;;;2.50;;
71187;SDS011;58893;53.130;8.158;2023-04-15T10:15:59;5.47;;;2.37;;
71187;SDS011;58893;53.130;8.158;2023-04-15T10:18:36;4.53;;;2.33;;
71187;SDS011;58893;53.130;8.158;2023-04-15T10:21:05;7.20;;;3.03;;
71187;SDS011;58893;53.130;8.158;2023-04-15T10:23:32;2.03;;;1.83;;
71187;SDS011;58893;53.130;8.158;2023-04-15T10:25:58;4.30;;;2.10;;
71187;SDS011;58893;53.130;8.158;2023-04-15T10:28:24;4.53;;;2.70;;
71187;SDS011;58893;53.130;8.158;2023-04-15T10:30:51;4.20;;;2.30;;
71187;SDS011;58893;53.130;8.158;2023-04-15T10:33:18;4.97;;;2.60;;
71187;SDS011;58893;53.130;8.158;2023-04-15T10:35:47;6.47;;;3.17;;
71187;SDS011;58893;53.130;8.158;2023-04-15T10:43:44;5.27;;;2.67;;
71187;SDS011;58893;53.130;8.158;2023-04-15T10:46:12;6.00;;;2.83;;
71187;SDS011;58893;53.130;8.158;2023-04-15T10:48:38;2.70;;;1.93;;
71187;SDS011;58893;53.130;8.158;2023-04-15T10:51:12;4.60;;;3.00;;
71187;SDS011;58893;53.130;8.158;2023-04-15T10:53:38;4.00;;;1.97;;
71187;SDS011;58893;53.130;8.158;2023-04-15T10:56:07;6.67;;;2.50;;
71187;SDS011;58893;53.130;8.158;2023-04-15T10:58:40;3.03;;;2.20;;
71187;SDS011;58893;53.130;8.158;2023-04-15T11:01:07;4.53;;;2.80;;
71187;SDS011;58893;53.130;8.158;2023-04-15T11:03:35;3.83;;;1.80;;
71187;SDS011;58893;53.130;8.158;2023-04-15T11:06:05;3.97;;;2.20;;
71187;SDS011;58893;53.130;8.158;2023-04-15T11:14:29;5.17;;;2.33;;
71187;SDS011;58893;53.130;8.158;2023-04-15T11:16:58;3.27;;;2.07;;
71187;SDS011;58893;53.130;8.158;2023-04-15T11:19:24;2.73;;;1.87;;
71187;SDS011;58893;53.130;8.158;2023-04-15T11:21:49;4.40;;;1.87;;
71187;SDS011;58893;53.130;8.158;2023-04-15T11:24:34;5.37;;;2.17;;
71187;SDS011;58893;53.130;8.158;2023-04-15T11:27:00;6.20;;;2.80;;
71187;SDS011;58893;53.130;8.158;2023-04-15T11:29:32;3.00;;;1.93;;
71187;SDS011;58893;53.130;8.158;2023-04-15T11:32:04;3.53;;;2.10;;
71187;SDS011;58893;53.130;8.158;2023-04-15T11:34:32;4.13;;;2.30;;
71187;SDS011;58893;53.130;8.158;2023-04-15T11:36:59;5.40;;;2.20;;
71187;SDS011;58893;53.130;8.158;2023-04-15T11:39:28;2.60;;;2.00;;
71187;SDS011;58893;53.130;8.158;2023-04-15T11:41:54;3.90;;;2.13;;
71187;SDS011;58893;53.130;8.158;2023-04-15T11:44:20;3.90;;;2.30;;
71187;SDS011;58893;53.130;8.158;2023-04-15T11:46:45;6.80;;;2.23;;
71187;SDS011;58893;53.130;8.158;2023-04-15T11:49:11;2.90;;;2.10;;
71187;SDS011;58893;53.130;8.158;2023-04-15T11:51:49;3.63;;;2.10;;
71187;SDS011;58893;53.130;8.158;2023-04-15T11:54:17;3.53;;;2.47;;
71187;SDS011;58893;53.130;8.158;2023-04-15T11:56:43;6.20;;;2.30;;
71187;SDS011;58893;53.130;8.158;2023-04-15T11:59:15;4.07;;;2.20;;
71187;SDS011;58893;53.130;8.158;2023-04-15T12:01:40;6.30;;;2.43;;
71187;SDS011;58893;53.130;8.158;2023-04-15T12:04:15;6.27;;;3.13;;
71187;SDS011;58893;53.130;8.158;2023-04-15T12:06:44;8.30;;;2.80;;
71187;SDS011;58893;53.130;8.158;2023-04-15T12:09:10;3.30;;;2.40;;
71187;SDS011;58893;53.130;8.158;2023-04-15T12:16:39;7.30;;;3.70;;
71187;SDS011;58893;53.130;8.158;2023-04-15T12:19:10;6.70;;;3.17;;
71187;SDS011;58893;53.130;8.158;2023-04-15T12:21:41;5.37;;;2.93;;
71187;SDS011;58893;53.130;8.158;2023-04-15T12:24:10;4.03;;;2.80;;
71187;SDS011;58893;53.130;8.158;2023-04-15T12:26:46;5.37;;;2.80;;
71187;SDS011;58893;53.130;8.158;2023-04-15T12:29:17;3.73;;;2.53;;
71187;SDS011;58893;53.130;8.158;2023-04-15T12:31:53;4.07;;;3.10;;
71187;SDS011;58893;53.130;8.158;2023-04-15T12:34:28;5.27;;;2.60;;
71187;SDS011;58893;53.130;8.158;2023-04-15T12:36:55;4.43;;;3.23;;
71187;SDS011;58893;53.130;8.158;2023-04-15T12:39:25;5.47;;;2.87;;
71187;SDS011;58893;53.130;8.158;2023-04-15T12:41:52;13.53;;;4.57;;
71187;SDS011;58893;53.130;8.158;2023-04-15T12:44:18;11.17;;;3.33;;
71187;SDS011;58893;53.130;8.158;2023-04-15T12:46:46;10.57;;;4.20;;
71187;SDS011;58893;53.130;8.158;2023-04-15T12:49:12;9.87;;;4.17;;
71187;SDS011;58893;53.130;8.158;2023-04-15T12:51:44;10.87;;;4.60;;
71187;SDS011;58893;53.130;8.158;2023-04-15T12:54:14;12.07;;;4.87;;
71187;SDS011;58893;53.130;8.158;2023-04-15T12:56:41;12.13;;;4.50;;
71187;SDS011;58893;53.130;8.158;2023-04-15T12:59:08;9.80;;;4.93;;
71187;SDS011;58893;53.130;8.158;2023-04-15T13:01:33;9.27;;;4.93;;
71187;SDS011;58893;53.130;8.158;2023-04-15T13:04:00;12.07;;;4.37;;
71187;SDS011;58893;53.130;8.158;2023-04-15T13:06:25;10.73;;;5.73;;
71187;SDS011;58893;53.130;8.158;2023-04-15T13:08:53;19.33;;;6.93;;
71187;SDS011;58893;53.130;8.158;2023-04-15T13:11:19;17.37;;;6.67;;
71187;SDS011;58893;53.130;8.158;2023-04-15T13:13:46;18.07;;;7.03;;
71187;SDS011;58893;53.130;8.158;2023-04-15T13:16:12;15.63;;;5.67;;
71187;SDS011;58893;53.130;8.158;2023-04-15T13:18:37;20.90;;;7.90;;
71187;SDS011;58893;53.130;8.158;2023-04-15T13:21:03;27.33;;;8.43;;
71187;SDS011;58893;53.130;8.158;2023-04-15T13:23:31;21.33;;;6.97;;
71187;SDS011;58893;53.130;8.158;2023-04-15T13:25:57;23.20;;;7.53;;
71187;SDS011;58893;53.130;8.158;2023-04-15T13:28:23;22.23;;;7.30;;
71187;SDS011;58893;53.130;8.158;2023-04-15T13:30:48;25.40;;;9.00;;
71187;SDS011;58893;53.130;8.158;2023-04-15T13:33:15;23.20;;;8.50;;
71187;SDS011;58893;53.130;8.158;2023-04-15T13:35:41;29.70;;;8.97;;
71187;SDS011;58893;53.130;8.158;2023-04-15T13:38:07;33.53;;;9.57;;
71187;SDS011;58893;53.130;8.158;2023-04-15T13:40:32;25.80;;;10.50;;
71187;SDS011;58893;53.130;8.158;2023-04-15T13:42:58;26.43;;;11.73;;
71187;SDS011;58893;53.130;8.158;2023-04-15T13:45:24;28.83;;;9.77;;
71187;SDS011;58893;53.130;8.158;2023-04-15T13:47:50;26.27;;;10.57;;
71187;SDS011;58893;53.130;8.158;2023-04-15T13:50:16;26.83;;;9.97;;
71187;SDS011;58893;53.130;8.158;2023-04-15T13:52:42;31.40;;;10.17;;
71187;SDS011;58893;53.130;8.158;2023-04-15T13:55:08;35.07;;;10.70;;
71187;SDS011;58893;53.130;8.158;2023-04-15T13:57:34;32.93;;;10.90;;
71187;SDS011;58893;53.130;8.158;2023-04-15T14:00:00;24.67;;;10.30;;
71187;SDS011;58893;53.130;8.158;2023-04-15T14:02:26;36.33;;;12.67;;
71187;SDS011;58893;53.130;8.158;2023-04-15T14:04:51;26.70;;;9.20;;
71187;SDS011;58893;53.130;8.158;2023-04-15T14:07:17;36.27;;;10.30;;
71187;SDS011;58893;53.130;8.158;2023-04-15T14:09:42;26.23;;;9.90;;
71187;SDS011;58893;53.130;8.158;2023-04-15T14:12:08;32.07;;;12.43;;
71187;SDS011;58893;53.130;8.158;2023-04-15T14:14:35;29.37;;;11.20;;
71187;SDS011;58893;53.130;8.158;2023-04-15T14:17:01;36.17;;;11.73;;
71187;SDS011;58893;53.130;8.158;2023-04-15T14:19:29;38.50;;;14.07;;
71187;SDS011;58893;53.130;8.158;2023-04-15T14:21:55;33.10;;;12.00;;
71187;SDS011;58893;53.130;8.158;2023-04-15T14:24:21;32.47;;;12.77;;
71187;SDS011;58893;53.130;8.158;2023-04-15T14:26:46;36.07;;;13.57;;
71187;SDS011;58893;53.130;8.158;2023-04-15T14:29:13;33.50;;;12.80;;
71187;SDS011;58893;53.130;8.158;2023-04-15T14:31:39;30.87;;;12.90;;
71187;SDS011;58893;53.130;8.158;2023-04-15T14:34:04;44.07;;;13.90;;
71187;SDS011;58893;53.130;8.158;2023-04-15T14:36:30;45.77;;;14.00;;
71187;SDS011;58893;53.130;8.158;2023-04-15T14:38:56;38.17;;;14.73;;
71187;SDS011;58893;53.130;8.158;2023-04-15T14:41:22;38.77;;;14.60;;
71187;SDS011;58893;53.130;8.158;2023-04-15T14:43:48;43.73;;;14.80;;
71187;SDS011;58893;53.130;8.158;2023-04-15T14:46:13;40.80;;;14.80;;
71187;SDS011;58893;53.130;8.158;2023-04-15T14:48:39;35.77;;;15.20;;
71187;SDS011;58893;53.130;8.158;2023-04-15T14:51:06;36.93;;;15.87;;
71187;SDS011;58893;53.130;8.158;2023-04-15T14:53:32;39.37;;;14.87;;